Time;durP1;ratioP1;P1;durP2;ratioP2;P2;SDS_P1;SDS_P2;PMS_P1;PMS_P2;Temp;Humidity;BMP_temperature;BMP_pressure;BME280_temperature;BME280_humidity;BME280_pressure;Samples;Min_cycle;Max_cycle;Signal;HPM_P1;HPM_P2
2022/08/24 00:00:47;;;;;;;1999.90;999.90;;;;;;;18.65;51.89;95606.47;5008516;28;20060;-75
2022/08/24 00:03:13;;;;;;;1999.90;999.90;;;;;;;18.58;51.68;95594.69;5009872;28;20053;-75
2022/08/24 00:05:38;;;;;;;1999.90;999.90;;;;;;;18.70;52.16;95622.41;5009397;28;20037;-75
2022/08/24 00:08:03;;;;;;;1999.90;999.90;;;;;;;18.66;51.56;95612.63;5009450;28;20026;-76
2022/08/24 00:10:29;;;;;;;1999.90;999.90;;;;;;;18.51;51.84;95607.97;4990315;28;20072;-75
2022/08/24 00:12:54;;;;;;;1999.90;999.90;;;;;;;18.64;52.34;95634.53;4972748;28;20463;-75
2022/08/24 00:15:19;;;;;;;1999.90;999.90;;;;;;;18.07;51.79;95540.59;4991016;28;20032;-74
2022/08/24 00:17:45;;;;;;;1999.90;999.90;;;;;;;18.54;51.97;95610.00;5008730;28;20018;-74
2022/08/24 00:20:11;;;;;;;1999.90;999.90;;;;;;;18.22;52.15;95566.81;5007177;28;20064;-74
2022/08/24 00:22:37;;;;;;;1999.90;999.90;;;;;;;18.44;52.43;95598.56;4988182;28;20037;-75
2022/08/24 00:25:04;;;;;;;1999.90;999.90;;;;;;;18.45;52.15;95607.44;4973041;28;20494;-76
2022/08/24 00:27:29;;;;;;;1999.90;999.90;;;;;;;18.46;52.39;95614.38;4990352;28;20045;-74
2022/08/24 00:29:55;;;;;;;1999.90;999.90;;;;;;;18.31;52.28;95598.94;4992162;28;20818;-74
2022/08/24 00:32:20;;;;;;;1999.90;999.90;;;;;;;17.82;52.48;95534.50;4990584;28;20124;-74
2022/08/24 00:34:46;;;;;;;1999.90;999.90;;;;;;;17.86;52.68;95546.13;4992332;28;20109;-74
2022/08/24 00:37:11;;;;;;;1999.90;999.90;;;;;;;18.30;52.50;95627.00;4990949;28;20022;-75
2022/08/24 00:39:36;;;;;;;1999.90;999.90;;;;;;;18.11;52.66;95590.69;5009492;28;20110;-74
2022/08/24 00:42:02;;;;;;;1999.90;999.90;;;;;;;17.71;52.75;95536.03;4990956;28;20033;-73
2022/08/24 00:44:27;;;;;;;1999.90;999.90;;;;;;;17.54;53.06;95513.66;4991226;28;20030;-74
2022/08/24 00:46:58;;;;;;;1999.90;999.90;;;;;;;18.10;53.01;95613.38;5001088;28;20175;-75
2022/08/24 00:49:39;;;;;;;1999.90;999.90;;;;;;;18.10;53.43;95610.69;5008552;28;20080;-73
2022/08/24 00:52:27;;;;;;;1999.90;999.90;;;;;;;18.01;53.31;95607.31;5007753;28;20032;-73
2022/08/24 00:55:01;;;;;;;1999.90;999.90;;;;;;;17.55;53.74;95538.66;4990788;28;20030;-75
2022/08/24 00:57:32;;;;;;;1999.90;999.90;;;;;;;17.81;53.86;95598.31;4991811;28;20025;-74
2022/08/24 01:00:04;;;;;;;1999.90;999.90;;;;;;;17.70;53.93;95599.03;5008395;28;20030;-68
2022/08/24 01:02:32;;;;;;;1999.90;999.90;;;;;;;17.67;54.23;95587.06;5006754;28;20029;-67
2022/08/24 01:05:01;;;;;;;1999.90;999.90;;;;;;;17.63;54.32;95584.25;5004761;28;20089;-68
2022/08/24 01:07:29;;;;;;;1999.90;999.90;;;;;;;17.66;54.69;95597.06;5007988;28;20026;-68
2022/08/24 01:09:58;;;;;;;1999.90;999.90;;;;;;;17.33;54.61;95546.06;4990749;28;20422;-67
2022/08/24 01:12:27;;;;;;;1999.90;999.90;;;;;;;17.85;54.85;95614.53;5007778;28;20120;-67
2022/08/24 01:14:54;;;;;;;1999.90;999.90;;;;;;;17.77;54.78;95607.38;4990883;28;20118;-68
2022/08/24 01:20:05;;;;;;;1999.90;999.90;;;;;;;17.64;55.23;95599.28;5009206;28;20503;-67
2022/08/24 01:22:53;;;;;;;1999.90;999.90;;;;;;;17.73;55.37;95611.88;4989041;28;20181;-67
2022/08/24 01:25:20;;;;;;;1999.90;999.90;;;;;;;17.77;55.13;95616.25;4991001;28;20081;-67
2022/08/24 01:27:47;;;;;;;1999.90;999.90;;;;;;;17.22;55.17;95534.19;5007936;28;20037;-67
2022/08/24 01:30:15;;;;;;;1999.90;999.90;;;;;;;17.61;55.38;95591.13;5006968;28;20042;-67
2022/08/24 01:32:41;;;;;;;1999.90;999.90;;;;;;;17.64;55.16;95590.41;4994611;28;20061;-67
2022/08/24 01:35:07;;;;;;;1999.90;999.90;;;;;;;17.58;55.56;95613.31;5012273;28;20029;-66
2022/08/24 01:37:34;;;;;;;1999.90;999.90;;;;;;;17.45;56.01;95584.81;5011974;28;20092;-66
2022/08/24 01:40:05;;;;;;;1999.90;999.90;;;;;;;17.61;56.10;95610.72;5010857;28;20022;-67
2022/08/24 01:42:33;;;;;;;1999.90;999.90;;;;;;;17.67;55.86;95608.59;4993523;28;20034;-68
2022/08/24 01:44:59;;;;;;;1999.90;999.90;;;;;;;17.71;55.83;95614.06;5011235;28;20030;-67
2022/08/24 01:47:24;;;;;;;1999.90;999.90;;;;;;;17.63;55.78;95608.47;5011575;28;20045;-67
2022/08/24 01:49:49;;;;;;;1999.90;999.90;;;;;;;17.58;56.30;95605.22;5009931;28;20022;-68
2022/08/24 01:52:19;;;;;;;1999.90;999.90;;;;;;;17.31;56.16;95564.44;5011791;28;20034;-67
2022/08/24 01:54:45;;;;;;;1999.90;999.90;;;;;;;17.12;56.36;95542.72;5009820;28;20113;-67
2022/08/24 01:57:12;;;;;;;1999.90;999.90;;;;;;;17.45;56.84;95601.75;4994658;28;20057;-67
2022/08/24 01:59:38;;;;;;;1999.90;999.90;;;;;;;17.35;56.80;95592.25;4992282;28;20022;-67
2022/08/24 02:02:11;;;;;;;1999.90;999.90;;;;;;;17.04;56.78;95540.91;5010587;28;20036;-67
2022/08/24 02:04:36;;;;;;;1999.90;999.90;;;;;;;17.34;56.98;95596.03;4990182;28;20020;-68
2022/08/24 02:07:02;;;;;;;1999.90;999.90;;;;;;;17.06;57.05;95552.91;4992387;28;20109;-67
2022/08/24 02:09:27;;;;;;;1999.90;999.90;;;;;;;17.21;57.25;95596.38;4992725;28;20153;-67
2022/08/24 02:11:54;;;;;;;1999.90;999.90;;;;;;;17.31;57.29;95607.47;4998298;28;20042;-67
2022/08/24 02:14:19;;;;;;;1999.90;999.90;;;;;;;17.18;56.90;95605.88;5010096;28;20030;-67
2022/08/24 02:16:45;;;;;;;1999.90;999.90;;;;;;;16.93;57.40;95567.44;4993415;28;20030;-67
2022/08/24 02:19:10;;;;;;;1999.90;999.90;;;;;;;16.82;57.43;95550.19;4992533;28;20537;-68
2022/08/24 02:21:36;;;;;;;1999.90;999.90;;;;;;;17.05;57.64;95585.50;5011569;28;20034;-67
2022/08/24 02:24:02;;;;;;;1999.90;999.90;;;;;;;17.05;57.74;95582.81;5008985;28;20019;-68
2022/08/24 02:26:27;;;;;;;1999.90;999.90;;;;;;;16.85;57.54;95558.34;4993973;28;20034;-67
2022/08/24 02:28:53;;;;;;;1999.90;999.90;;;;;;;16.80;57.59;95552.41;4992987;28;20026;-68
2022/08/24 02:31:18;;;;;;;1999.90;999.90;;;;;;;17.17;57.30;95607.00;5009308;28;20084;-67
2022/08/24 02:33:44;;;;;;;1999.90;999.90;;;;;;;16.81;57.87;95559.34;4993420;28;20096;-67
2022/08/24 02:36:11;;;;;;;1999.90;999.90;;;;;;;17.02;57.88;95596.91;5010307;28;20022;-67
2022/08/24 02:38:36;;;;;;;1999.90;999.90;;;;;;;16.95;58.06;95586.72;4993496;28;20758;-67
2022/08/24 02:41:02;;;;;;;1999.90;999.90;;;;;;;17.03;57.70;95601.16;5009285;28;20033;-67
2022/08/24 02:43:28;;;;;;;1999.90;999.90;;;;;;;16.92;57.72;95587.34;4991724;28;20021;-67
2022/08/24 02:45:53;;;;;;;1999.90;999.90;;;;;;;16.86;57.51;95573.34;5009517;28;20080;-67
2022/08/24 02:48:19;;;;;;;1999.90;999.90;;;;;;;16.91;56.89;95572.38;5010992;28;20436;-68
2022/08/24 02:50:48;;;;;;;1999.90;999.90;;;;;;;17.05;57.18;95598.94;5009479;28;20034;-67
2022/08/24 02:53:16;;;;;;;1999.90;999.90;;;;;;;16.94;57.41;95587.00;4993288;28;20029;-67
2022/08/24 02:55:42;;;;;;;1999.90;999.90;;;;;;;17.05;57.36;95609.69;4992042;28;20112;-67
2022/08/24 02:58:09;;;;;;;1999.90;999.90;;;;;;;16.97;57.51;95605.19;4992308;28;20573;-67
2022/08/24 03:00:37;;;;;;;1999.90;999.90;;;;;;;17.01;57.89;95609.56;5008154;28;20092;-68
2022/08/24 03:03:03;;;;;;;1999.90;999.90;;;;;;;16.72;57.73;95572.09;5010079;28;20029;-67
2022/08/24 03:05:28;;;;;;;1999.90;999.90;;;;;;;16.58;58.03;95551.69;5009256;28;20040;-67
2022/08/24 03:07:54;;;;;;;1999.90;999.90;;;;;;;16.82;58.00;95590.47;4993457;28;20101;-67
2022/08/24 03:10:20;;;;;;;1999.90;999.90;;;;;;;16.91;58.35;95609.19;5008548;28;20501;-68
2022/08/24 03:12:46;;;;;;;1999.90;999.90;;;;;;;16.92;58.41;95611.53;4991510;28;20543;-68
2022/08/24 03:15:12;;;;;;;1999.90;999.90;;;;;;;16.55;58.03;95548.84;4989525;28;20113;-66
2022/08/24 03:17:38;;;;;;;1999.90;999.90;;;;;;;16.91;57.91;95603.81;5010520;28;20026;-66
2022/08/24 03:20:06;;;;;;;1999.90;999.90;;;;;;;16.84;58.17;95596.31;4992215;28;20033;-68
2022/08/24 03:22:33;;;;;;;1999.90;999.90;;;;;;;16.63;57.95;95572.94;5009019;28;20130;-68
2022/08/24 03:24:58;;;;;;;1999.90;999.90;;;;;;;16.74;58.38;95588.69;4991480;28;20030;-66
2022/08/24 03:27:23;;;;;;;1999.90;999.90;;;;;;;16.53;58.02;95556.44;4991848;28;20443;-66
2022/08/24 03:29:49;;;;;;;1999.90;999.90;;;;;;;16.69;58.00;95583.47;5009227;28;20079;-67
2022/08/24 03:32:14;;;;;;;1999.90;999.90;;;;;;;16.81;58.04;95605.03;4990844;28;20088;-67
2022/08/24 03:34:39;;;;;;;1999.90;999.90;;;;;;;16.67;58.07;95580.31;4992641;28;20160;-66
2022/08/24 03:37:05;;;;;;;1999.90;999.90;;;;;;;16.79;58.25;95604.59;5009260;28;20026;-67
2022/08/24 03:39:30;;;;;;;1999.90;999.90;;;;;;;16.48;58.10;95573.56;4992588;28;20025;-68
2022/08/24 03:41:56;;;;;;;1999.90;999.90;;;;;;;16.67;58.42;95596.44;5008156;28;20021;-66
2022/08/24 03:44:23;;;;;;;1999.90;999.90;;;;;;;16.57;58.74;95592.28;5009901;28;20041;-66
2022/08/24 03:46:49;;;;;;;1999.90;999.90;;;;;;;16.52;58.57;95598.63;5008209;28;20022;-67
2022/08/24 03:49:14;;;;;;;1999.90;999.90;;;;;;;16.57;58.79;95600.31;5010409;28;20033;-66
2022/08/24 03:51:40;;;;;;;1999.90;999.90;;;;;;;16.58;58.80;95610.75;4990778;28;20497;-67
2022/08/24 03:54:07;;;;;;;1999.90;999.90;;;;;;;16.59;58.81;95615.00;5008687;28;22655;-66
2022/08/24 03:56:34;;;;;;;1999.90;999.90;;;;;;;16.55;58.92;95607.94;4991225;28;20036;-68
2022/08/24 03:58:59;;;;;;;1999.90;999.90;;;;;;;16.45;58.77;95600.28;4991356;28;20529;-67
2022/08/24 04:01:25;;;;;;;1999.90;999.90;;;;;;;16.40;58.95;95603.19;5008126;28;20030;-67
2022/08/24 04:03:52;;;;;;;1999.90;999.90;;;;;;;16.40;59.26;95608.56;5009394;28;20639;-67
2022/08/24 04:06:18;;;;;;;1999.90;999.90;;;;;;;16.49;59.03;95620.78;5008791;28;20467;-67
2022/08/24 04:08:44;;;;;;;1999.90;999.90;;;;;;;16.38;59.37;95606.97;5009926;28;20034;-67
2022/08/24 04:11:12;;;;;;;1999.90;999.90;;;;;;;16.26;58.80;95574.69;5007144;28;20402;-66
2022/08/24 04:13:37;;;;;;;1999.90;999.90;;;;;;;16.34;59.06;95578.44;4991712;28;20033;-66
2022/08/24 04:16:07;;;;;;;1999.90;999.90;;;;;;;16.35;58.99;95590.75;5007294;28;20604;-67
2022/08/24 04:18:33;;;;;;;1999.90;999.90;;;;;;;16.38;58.86;95573.97;4990901;28;20030;-67
2022/08/24 04:20:58;;;;;;;1999.90;999.90;;;;;;;16.49;58.82;95604.69;4987860;28;20494;-67
2022/08/24 04:23:24;;;;;;;1999.90;999.90;;;;;;;16.61;58.60;95614.66;4972037;28;20100;-66
2022/08/24 04:25:49;;;;;;;1999.90;999.90;;;;;;;16.57;58.42;95609.16;5000788;28;20029;-66
2022/08/24 04:28:20;;;;;;;1999.90;999.90;;;;;;;16.58;58.41;95605.38;4991988;28;20450;-66
2022/08/24 04:30:50;;;;;;;1999.90;999.90;;;;;;;16.73;58.01;95614.72;4990094;28;20120;-67
2022/08/24 04:33:18;;;;;;;1999.90;999.90;;;;;;;16.58;58.11;95585.78;5001566;28;20063;-66
2022/08/24 04:35:46;;;;;;;1999.90;999.90;;;;;;;16.38;58.09;95547.13;4997739;28;20057;-67
2022/08/24 04:38:13;;;;;;;1999.90;999.90;;;;;;;16.44;57.98;95537.75;5009345;28;20022;-67
2022/08/24 04:40:43;;;;;;;1999.90;999.90;;;;;;;16.92;57.88;95610.75;5007495;28;20076;-67
2022/08/24 04:43:09;;;;;;;1999.90;999.90;;;;;;;16.72;58.08;95580.16;4989261;28;20023;-66
2022/08/24 04:45:40;;;;;;;1999.90;999.90;;;;;;;16.66;57.67;95563.44;4978225;28;20029;-67
2022/08/24 04:48:05;;;;;;;1999.90;999.90;;;;;;;16.75;57.68;95560.69;4991780;28;20146;-66
2022/08/24 04:50:35;;;;;;;1999.90;999.90;;;;;;;17.11;57.59;95603.75;5008271;28;20110;-67
2022/08/24 04:53:02;;;;;;;1999.90;999.90;;;;;;;17.18;56.98;95603.19;4990315;28;20030;-66
2022/08/24 04:55:27;;;;;;;1999.90;999.90;;;;;;;17.35;56.94;95624.50;4991654;28;20057;-66
2022/08/24 04:57:53;;;;;;;1999.90;999.90;;;;;;;17.34;56.83;95619.44;5006821;28;20438;-66
2022/08/24 05:00:18;;;;;;;1999.90;999.90;;;;;;;17.50;56.39;95625.72;5007231;28;20415;-67
2022/08/24 05:02:44;;;;;;;1999.90;999.90;;;;;;;17.60;56.23;95636.03;4991309;28;20124;-67
2022/08/24 05:05:10;;;;;;;1999.90;999.90;;;;;;;17.57;56.15;95623.28;4989893;28;20068;-67
2022/08/24 05:07:36;;;;;;;1999.90;999.90;;;;;;;17.79;55.72;95624.75;4994132;28;20117;-67
2022/08/24 05:10:04;;;;;;;1999.90;999.90;;;;;;;17.76;55.46;95627.31;5012913;28;20026;-67
2022/08/24 05:12:29;;;;;;;1999.90;999.90;;;;;;;17.71;54.87;95604.09;5009587;28;20038;-67
2022/08/24 05:14:54;;;;;;;1999.90;999.90;;;;;;;17.75;54.76;95601.53;5013055;28;20057;-66
2022/08/24 05:17:20;;;;;;;1999.90;999.90;;;;;;;17.88;54.86;95617.34;5006901;28;20122;-66
2022/08/24 05:19:45;;;;;;;1999.90;999.90;;;;;;;17.96;54.64;95620.22;5011317;28;20025;-76
2022/08/24 05:22:10;;;;;;;1999.90;999.90;;;;;;;18.15;54.25;95640.06;4994833;28;20457;-65
2022/08/24 05:24:36;;;;;;;1999.90;999.90;;;;;;;18.13;54.39;95620.78;4995133;28;20451;-68
2022/08/24 05:27:01;;;;;;;1999.90;999.90;;;;;;;18.18;53.86;95612.47;5010205;28;20030;-70
2022/08/24 05:29:26;;;;;;;1999.90;999.90;;;;;;;18.39;53.94;95643.81;5012456;28;20084;-67
2022/08/24 05:31:52;;;;;;;1999.90;999.90;;;;;;;18.50;53.33;95644.13;4994212;28;20084;-64
2022/08/24 05:34:18;;;;;;;1999.90;999.90;;;;;;;17.58;52.93;95509.19;5011221;28;20037;-67
2022/08/24 05:36:44;;;;;;;1999.90;999.90;;;;;;;18.09;52.48;95560.66;5011364;28;20037;-67
2022/08/24 05:39:12;;;;;;;1999.90;999.90;;;;;;;17.97;52.18;95541.88;5012385;28;20026;-68
2022/08/24 05:41:41;;;;;;;1999.90;999.90;;;;;;;18.84;52.18;95656.28;5010333;28;20061;-67
2022/08/24 05:44:07;;;;;;;1999.90;999.90;;;;;;;18.84;51.85;95646.28;4992461;28;20030;-68
2022/08/24 05:46:33;;;;;;;1999.90;999.90;;;;;;;18.70;51.49;95606.25;4993243;28;20128;-67
2022/08/24 05:48:59;;;;;;;1999.90;999.90;;;;;;;18.09;51.18;95522.19;5012054;28;20105;-67
2022/08/24 05:51:25;;;;;;;1999.90;999.90;;;;;;;18.85;50.65;95598.53;5010835;28;20475;-67
2022/08/24 05:53:50;;;;;;;1999.90;999.90;;;;;;;18.85;50.24;95579.66;5009982;28;20443;-66
2022/08/24 05:56:18;;;;;;;1999.90;999.90;;;;;;;19.51;50.41;95686.91;5011010;28;20049;-65
2022/08/24 05:58:44;;;;;;;1999.90;999.90;;;;;;;19.26;49.96;95618.06;5011213;28;20022;-65
2022/08/24 06:01:14;;;;;;;1999.90;999.90;;;;;;;19.72;49.52;95678.59;5010523;28;20555;-64
2022/08/24 06:03:40;;;;;;;1999.90;999.90;;;;;;;18.87;48.95;95539.66;4995621;28;20034;-64
2022/08/24 06:06:07;;;;;;;1999.90;999.90;;;;;;;19.49;48.54;95611.69;5011516;28;20092;-66
2022/08/24 06:08:39;;;;;;;1999.90;999.90;;;;;;;20.03;48.35;95669.66;5010477;28;20026;-65
2022/08/24 06:11:05;;;;;;;1999.90;999.90;;;;;;;20.02;47.96;95657.31;5011942;28;20082;-66
2022/08/24 06:13:32;;;;;;;1999.90;999.90;;;;;;;19.61;48.11;95588.50;4991684;28;20034;-66
2022/08/24 06:16:10;;;;;;;1999.90;999.90;;;;;;;19.65;47.64;95555.03;4998342;28;20032;-66
2022/08/24 06:18:36;;;;;;;1999.90;999.90;;;;;;;19.55;47.27;95544.78;5009278;28;20034;-66
2022/08/24 06:21:10;;;;;;;1999.90;999.90;;;;;;;19.45;46.38;95548.00;5010838;28;20026;-66
2022/08/24 06:23:36;;;;;;;1999.90;999.90;;;;;;;20.06;45.96;95609.53;4992132;28;20033;-65
2022/08/24 06:28:48;;;;;;;1999.90;999.90;;;;;;;20.63;45.83;95642.41;5006100;28;20065;-66
2022/08/24 06:31:13;;;;;;;1999.90;999.90;;;;;;;20.54;45.11;95633.72;5008968;28;20029;-66
2022/08/24 06:33:39;;;;;;;1999.90;999.90;;;;;;;20.74;45.53;95640.69;5010861;28;20030;-67
2022/08/24 06:36:05;;;;;;;1999.90;999.90;;;;;;;20.81;45.23;95640.81;4992288;28;20036;-67
2022/08/24 06:38:30;;;;;;;1999.90;999.90;;;;;;;21.09;45.38;95656.81;5011159;28;20022;-66
2022/08/24 06:40:56;;;;;;;1999.90;999.90;;;;;;;21.09;44.96;95661.41;5010393;28;20475;-67
2022/08/24 06:43:23;;;;;;;1999.90;999.90;;;;;;;20.64;44.48;95552.84;4992292;28;20426;-67
2022/08/24 06:45:49;;;;;;;1999.90;999.90;;;;;;;20.60;44.63;95556.63;5008415;28;20057;-68
2022/08/24 06:48:15;;;;;;;1999.90;999.90;;;;;;;20.43;44.71;95503.78;5011019;28;20033;-67
2022/08/24 06:50:41;;;;;;;1999.90;999.90;;;;;;;20.68;43.37;95531.28;5002172;28;20511;-68
2022/08/24 06:53:06;;;;;;;1999.90;999.90;;;;;;;20.77;43.79;95526.41;4992047;28;20033;-68
2022/08/24 06:55:32;;;;;;;1999.90;999.90;;;;;;;21.42;43.25;95633.81;5005461;28;20026;-67
2022/08/24 06:57:57;;;;;;;1999.90;999.90;;;;;;;20.65;43.15;95483.34;4993117;28;20025;-67
2022/08/24 07:00:23;;;;;;;1999.90;999.90;;;;;;;20.83;42.38;95507.97;5008727;28;20077;-67
2022/08/24 07:02:49;;;;;;;1999.90;999.90;;;;;;;21.12;42.37;95563.34;5009144;28;20080;-67
2022/08/24 07:05:15;;;;;;;1999.90;999.90;;;;;;;21.26;42.36;95555.47;5008932;28;20021;-67
2022/08/24 07:07:40;;;;;;;1999.90;999.90;;;;;;;22.30;41.77;95685.88;4990811;28;20615;-67
2022/08/24 07:10:09;;;;;;;1999.90;999.90;;;;;;;22.43;41.07;95701.97;4990620;28;20614;-66
2022/08/24 07:12:36;;;;;;;1999.90;999.90;;;;;;;21.80;40.93;95565.19;5008066;28;20040;-67
2022/08/24 07:15:03;;;;;;;1999.90;999.90;;;;;;;22.34;40.67;95634.47;5009037;28;20029;-67
2022/08/24 07:17:28;;;;;;;1999.90;999.90;;;;;;;22.77;40.34;95687.28;5008386;28;20030;-68
2022/08/24 07:19:54;;;;;;;1999.90;999.90;;;;;;;22.38;39.57;95626.38;4990204;28;20021;-66
2022/08/24 07:22:20;;;;;;;1999.90;999.90;;;;;;;22.46;40.02;95622.59;4991211;28;20037;-68
2022/08/24 07:24:45;;;;;;;1999.90;999.90;;;;;;;22.62;39.25;95650.28;5007684;28;20026;-68
2022/08/24 07:27:12;;;;;;;1999.90;999.90;;;;;;;22.21;38.97;95582.41;5008362;28;20029;-67
2022/08/24 07:29:38;;;;;;;1999.90;999.90;;;;;;;22.01;39.39;95534.91;5004665;28;20053;-68
2022/08/24 07:32:04;;;;;;;1999.90;999.90;;;;;;;22.35;39.76;95632.53;5003647;28;20033;-68
2022/08/24 07:34:30;;;;;;;1999.90;999.90;;;;;;;22.45;39.16;95610.19;5009076;28;20053;-72
2022/08/24 07:36:55;;;;;;;1999.90;999.90;;;;;;;22.31;39.30;95545.75;5010450;28;20477;-66
2022/08/24 07:39:21;;;;;;;1999.90;999.90;;;;;;;22.86;39.85;95656.38;4991778;28;20026;-66
2022/08/24 07:41:46;;;;;;;1999.90;999.90;;;;;;;23.23;39.06;95640.13;5009523;28;20034;-66
2022/08/24 07:44:14;;;;;;;1999.90;999.90;;;;;;;22.67;39.29;95660.81;5009876;28;20038;-66
2022/08/24 07:46:40;;;;;;;1999.90;999.90;;;;;;;23.00;39.20;95656.59;5010016;28;20029;-67
2022/08/24 07:49:07;;;;;;;1999.90;999.90;;;;;;;23.04;38.24;95635.69;4989463;28;20434;-67
2022/08/24 07:51:33;;;;;;;1999.90;999.90;;;;;;;23.43;38.16;95663.22;5023091;28;20049;-67
2022/08/24 07:54:00;;;;;;;1999.90;999.90;;;;;;;23.70;37.76;95674.75;5007978;28;20143;-67
2022/08/24 07:56:27;;;;;;;1999.90;999.90;;;;;;;22.95;38.06;95572.81;5026349;28;20389;-67
2022/08/24 07:58:52;;;;;;;1999.90;999.90;;;;;;;23.19;38.34;95612.22;5009892;28;20013;-68
2022/08/24 08:01:18;;;;;;;1999.90;999.90;;;;;;;23.53;37.94;95667.19;5009877;28;20029;-68
2022/08/24 08:03:43;;;;;;;1999.90;999.90;;;;;;;23.45;38.10;95622.13;4998348;28;20030;-68
2022/08/24 08:06:09;;;;;;;1999.90;999.90;;;;;;;23.77;37.18;95647.63;5004435;28;20014;-68
2022/08/24 08:08:37;;;;;;;1999.90;999.90;;;;;;;24.01;37.60;95661.78;5013217;28;20069;-67
2022/08/24 08:11:03;;;;;;;1999.90;999.90;;;;;;;23.29;37.58;95554.53;5029220;28;20025;-68
2022/08/24 08:13:30;;;;;;;1999.90;999.90;;;;;;;23.61;37.05;95622.66;5008195;28;20036;-67
2022/08/24 08:15:58;;;;;;;1999.90;999.90;;;;;;;24.42;37.30;95678.00;4992141;28;20081;-68
2022/08/24 08:18:24;;;;;;;1999.90;999.90;;;;;;;24.37;36.50;95679.13;5008697;28;20033;-67
2022/08/24 08:20:49;;;;;;;1999.90;999.90;;;;;;;23.34;38.19;95575.91;4996603;28;20458;-67
2022/08/24 08:26:00;;;;;;;1999.90;999.90;;;;;;;24.53;36.71;95676.13;5008979;28;20045;-67
2022/08/24 08:28:32;;;;;;;1999.90;999.90;;;;;;;24.72;36.53;95688.63;5007652;28;20041;-68
2022/08/24 08:31:02;;;;;;;1999.90;999.90;;;;;;;24.23;36.67;95598.25;5009552;28;20034;-68
2022/08/24 08:33:28;;;;;;;1999.90;999.90;;;;;;;23.89;36.47;95550.69;5009179;28;20038;-68
2022/08/24 08:36:10;;;;;;;1999.90;999.90;;;;;;;24.13;36.37;95588.09;5007246;28;20030;-68
2022/08/24 08:38:36;;;;;;;1999.90;999.90;;;;;;;24.19;36.13;95566.75;5006052;28;20117;-67
2022/08/24 08:41:39;;;;;;;1999.90;999.90;;;;;;;24.40;36.10;95672.91;4992339;28;20126;-66
2022/08/24 08:44:34;;;;;;;1999.90;999.90;;;;;;;24.75;36.03;95682.44;5012961;28;20021;-69
2022/08/24 08:47:05;;;;;;;1999.90;999.90;;;;;;;24.55;36.69;95624.81;5012410;28;20534;-67
2022/08/24 08:49:39;;;;;;;1999.90;999.90;;;;;;;25.03;35.68;95673.59;5013205;28;20030;-67
2022/08/24 08:52:46;;;;;;;1999.90;999.90;;;;;;;25.19;36.06;95676.78;4995283;28;20026;-67
2022/08/24 08:55:33;;;;;;;1999.90;999.90;;;;;;;25.40;35.36;95676.06;5013188;28;20080;-67
2022/08/24 08:58:17;;;;;;;1999.90;999.90;;;;;;;25.00;35.70;95612.53;4993136;28;20033;-68
2022/08/24 09:00:54;;;;;;;1999.90;999.90;;;;;;;25.56;35.25;95673.75;5016181;28;20025;-67
2022/08/24 09:03:30;;;;;;;1999.90;999.90;;;;;;;25.32;35.51;95645.28;5032340;28;20034;-66
2022/08/24 09:06:20;;;;;;;1999.90;999.90;;;;;;;24.94;36.41;95627.69;4999449;28;20386;-65
2022/08/24 09:09:19;;;;;;;1999.90;999.90;;;;;;;24.36;35.66;95569.59;5012048;28;20034;-65
2022/08/24 09:11:47;;;;;;;1999.90;999.90;;;;;;;24.83;35.92;95638.56;5011935;28;20033;-64
2022/08/24 09:14:22;;;;;;;1999.90;999.90;;;;;;;24.75;35.92;95585.25;5012373;28;20037;-64
2022/08/24 09:17:21;;;;;;;1999.90;999.90;;;;;;;25.05;36.49;95674.78;5012457;28;20056;-67
2022/08/24 09:19:58;;;;;;;1999.90;999.90;;;;;;;25.49;36.14;95675.66;5012832;28;20029;-65
2022/08/24 09:22:24;;;;;;;1999.90;999.90;;;;;;;25.35;35.90;95617.31;4993944;28;20065;-65
2022/08/24 09:24:52;;;;;;;1999.90;999.90;;;;;;;25.42;36.36;95677.22;5012622;28;20050;-64
2022/08/24 09:27:54;;;;;;;1999.90;999.90;;;;;;;25.50;36.40;95674.53;4994213;28;20705;-65
2022/08/24 09:30:22;;;;;;;;;;;;;;;25.58;36.45;95663.22;5010290;28;20052;-65
2022/08/24 09:33:13;;;;;;;1999.90;999.90;;;;;;;24.83;36.89;95554.22;5029957;28;19960;-66
2022/08/24 09:36:02;;;;;;;1999.90;999.90;;;;;;;25.85;36.90;95662.91;5023832;28;20029;-65
2022/08/24 09:38:54;;;;;;;1999.90;999.90;;;;;;;26.15;35.91;95665.97;5012340;28;20033;-65
2022/08/24 09:41:31;;;;;;;1999.90;999.90;;;;;;;26.04;35.29;95624.31;5010683;28;20026;-65
2022/08/24 09:44:19;;;;;;;1999.90;999.90;;;;;;;26.18;35.50;95650.78;5012000;28;20544;-66
2022/08/24 09:47:02;;;;;;;1999.90;999.90;;;;;;;26.02;35.48;95620.44;5011628;28;20065;-67
2022/08/24 09:49:52;;;;;;;1999.90;999.90;;;;;;;26.04;36.89;95661.69;4992465;28;20026;-67
2022/08/24 09:52:33;;;;;;;1999.90;999.90;;;;;;;25.81;35.50;95591.25;5001370;28;20466;-65
2022/08/24 09:55:29;;;;;;;1999.90;999.90;;;;;;;26.54;35.51;95650.72;5010845;28;20026;-67
2022/08/24 09:58:13;;;;;;;1999.90;999.90;;;;;;;26.59;35.64;95655.78;5011800;28;20438;-67
2022/08/24 10:00:46;;;;;;;1999.90;999.90;;;;;;;26.06;35.55;95562.00;5012068;28;20022;-67
2022/08/24 10:03:35;;;;;;;1999.90;999.90;;;;;;;26.29;35.11;95569.72;5010894;28;20034;-68
2022/08/24 10:06:07;;;;;;;1999.90;999.90;;;;;;;26.89;35.40;95645.13;4992306;28;20053;-66
2022/08/24 10:08:51;;;;;;;;;;;;;;;27.04;35.23;95648.56;5003530;28;20041;-66
2022/08/24 10:11:32;;;;;;;1999.90;999.90;;;;;;;25.77;36.04;95525.09;5004443;28;19949;-66
2022/08/24 10:14:34;;;;;;;1999.90;999.90;;;;;;;25.98;36.34;95647.69;5010775;28;20172;-66
2022/08/24 10:17:13;;;;;;;1999.90;999.90;;;;;;;26.26;36.15;95640.63;5002289;28;20487;-65
2022/08/24 10:19:47;;;;;;;1999.90;999.90;;;;;;;26.43;35.95;95643.34;5031340;28;20064;-66
2022/08/24 10:22:30;;;;;;;1999.90;999.90;;;;;;;26.74;34.72;95638.19;5004004;28;20386;-67
2022/08/24 10:25:09;;;;;;;1999.90;999.90;;;;;;;26.09;36.95;95612.22;5011337;28;20037;-67
2022/08/24 10:27:48;;;;;;;1999.90;999.90;;;;;;;26.41;36.84;95637.50;4995576;28;20029;-66
2022/08/24 10:30:51;;;;;;;1999.90;999.90;;;;;;;26.08;37.00;95640.66;5003449;28;20029;-67
2022/08/24 10:33:25;;;;;;;1999.90;999.90;;;;;;;26.57;36.48;95645.25;5010119;28;20026;-66
2022/08/24 10:36:25;;;;;;;1999.90;999.90;;;;;;;26.82;35.56;95633.44;5005038;28;20187;-67
2022/08/24 10:42:10;;;;;;;1999.90;999.90;;;;;;;26.78;36.20;95643.63;4992457;28;20041;-66
2022/08/24 10:44:46;;;;;;;1999.90;999.90;;;;;;;27.09;35.92;95641.94;4992208;28;20038;-67
2022/08/24 10:47:23;;;;;;;1999.90;999.90;;;;;;;27.09;36.20;95636.47;5007509;28;20038;-66
2022/08/24 10:50:08;;;;;;;1999.90;999.90;;;;;;;27.06;35.62;95638.00;4992590;28;20034;-65
2022/08/24 10:52:52;;;;;;;1999.90;999.90;;;;;;;27.17;35.22;95611.44;4988120;28;20041;-66
2022/08/24 10:55:28;;;;;;;1999.90;999.90;;;;;;;27.57;35.06;95627.56;5000380;28;20536;-66
2022/08/24 10:58:21;;;;;;;1999.90;999.90;;;;;;;26.87;37.32;95628.38;5011397;28;20468;-67
2022/08/24 11:00:47;;;;;;;1999.90;999.90;;;;;;;27.29;36.26;95618.41;4990755;28;20450;-66
2022/08/24 11:03:25;;;;;;;1999.90;999.90;;;;;;;26.85;36.09;95557.00;4975643;28;20035;-67
2022/08/24 11:05:54;;;;;;;1999.90;999.90;;;;;;;27.63;35.68;95604.88;5011303;28;20036;-66
2022/08/24 11:08:28;;;;;;;1999.90;999.90;;;;;;;26.12;38.34;95627.81;4993574;28;20018;-66
2022/08/24 11:11:10;;;;;;;1999.90;999.90;;;;;;;26.11;39.02;95629.75;5015602;28;20032;-66
2022/08/24 11:13:48;;;;;;;1999.90;999.90;;;;;;;26.85;36.25;95606.16;5012417;28;20060;-66
2022/08/24 11:16:23;;;;;;;1999.90;999.90;;;;;;;26.62;36.86;95623.03;4992511;28;20420;-66
2022/08/24 11:18:54;;;;;;;1999.90;999.90;;;;;;;27.12;36.62;95619.28;5010721;28;20025;-66